sensor_id;sensor_type;location;lat;lon;timestamp;P1;durP1;ratioP1;P2;durP2;ratioP2
10761;SDS011;5433;50.862;4.320;2023-09-30T00:00:15;7.05;;;5.93;;
10761;SDS011;5433;50.862;4.320;2023-09-30T00:02:41;10.98;;;6.43;;
10761;SDS011;5433;50.862;4.320;2023-09-30T00:05:07;8.35;;;6.15;;
10761;SDS011;5433;50.862;4.320;2023-09-30T00:07:34;9.75;;;6.35;;
10761;SDS011;5433;50.862;4.320;2023-09-30T00:10:01;9.27;;;6.57;;
10761;SDS011;5433;50.862;4.320;2023-09-30T00:12:28;7.90;;;5.93;;
10761;SDS011;5433;50.862;4.320;2023-09-30T00:14:54;7.88;;;6.38;;
10761;SDS011;5433;50.862;4.320;2023-09-30T00:17:20;9.25;;;6.97;;
10761;SDS011;5433;50.862;4.320;2023-09-30T00:19:46;8.18;;;6.10;;
10761;SDS011;5433;50.862;4.320;2023-09-30T00:22:12;10.35;;;6.63;;
10761;SDS011;5433;50.862;4.320;2023-09-30T00:24:38;9.90;;;6.75;;
10761;SDS011;5433;50.862;4.320;2023-09-30T00:27:04;7.93;;;6.65;;
10761;SDS011;5433;50.862;4.320;2023-09-30T00:29:30;8.48;;;6.80;;
10761;SDS011;5433;50.862;4.320;2023-09-30T00:31:57;8.43;;;6.57;;
10761;SDS011;5433;50.862;4.320;2023-09-30T00:34:23;11.38;;;6.50;;
10761;SDS011;5433;50.862;4.320;2023-09-30T00:36:49;8.32;;;6.80;;
10761;SDS011;5433;50.862;4.320;2023-09-30T00:39:15;9.50;;;7.00;;
10761;SDS011;5433;50.862;4.320;2023-09-30T00:41:41;11.20;;;7.05;;
10761;SDS011;5433;50.862;4.320;2023-09-30T00:44:07;9.98;;;6.88;;
10761;SDS011;5433;50.862;4.320;2023-09-30T00:46:34;10.00;;;6.88;;
10761;SDS011;5433;50.862;4.320;2023-09-30T00:49:01;10.77;;;6.93;;
10761;SDS011;5433;50.862;4.320;2023-09-30T00:51:28;9.65;;;7.32;;
10761;SDS011;5433;50.862;4.320;2023-09-30T00:53:55;8.45;;;6.50;;
10761;SDS011;5433;50.862;4.320;2023-09-30T00:56:23;8.43;;;6.43;;
10761;SDS011;5433;50.862;4.320;2023-09-30T00:58:50;10.80;;;7.15;;
10761;SDS011;5433;50.862;4.320;2023-09-30T01:01:18;9.73;;;6.90;;
10761;SDS011;5433;50.862;4.320;2023-09-30T01:03:44;9.88;;;7.03;;
10761;SDS011;5433;50.862;4.320;2023-09-30T01:06:11;10.13;;;6.88;;
10761;SDS011;5433;50.862;4.320;2023-09-30T01:08:37;9.23;;;6.82;;
10761;SDS011;5433;50.862;4.320;2023-09-30T01:11:04;10.52;;;7.38;;
10761;SDS011;5433;50.862;4.320;2023-09-30T01:13:37;9.02;;;7.40;;
10761;SDS011;5433;50.862;4.320;2023-09-30T01:16:07;8.93;;;7.05;;
10761;SDS011;5433;50.862;4.320;2023-09-30T01:18:37;12.07;;;7.03;;
10761;SDS011;5433;50.862;4.320;2023-09-30T01:21:04;8.57;;;6.80;;
10761;SDS011;5433;50.862;4.320;2023-09-30T01:23:31;10.50;;;7.20;;
10761;SDS011;5433;50.862;4.320;2023-09-30T01:25:57;9.50;;;7.28;;
10761;SDS011;5433;50.862;4.320;2023-09-30T01:28:24;11.98;;;7.35;;
10761;SDS011;5433;50.862;4.320;2023-09-30T01:30:51;9.60;;;7.38;;
10761;SDS011;5433;50.862;4.320;2023-09-30T01:33:17;10.15;;;7.45;;
10761;SDS011;5433;50.862;4.320;2023-09-30T01:35:44;11.00;;;7.32;;
10761;SDS011;5433;50.862;4.320;2023-09-30T01:38:10;8.35;;;6.88;;
10761;SDS011;5433;50.862;4.320;2023-09-30T01:40:36;7.88;;;7.07;;
10761;SDS011;5433;50.862;4.320;2023-09-30T01:43:05;11.30;;;7.03;;
10761;SDS011;5433;50.862;4.320;2023-09-30T01:45:31;9.93;;;7.22;;
10761;SDS011;5433;50.862;4.320;2023-09-30T01:47:57;10.23;;;7.30;;
10761;SDS011;5433;50.862;4.320;2023-09-30T01:50:23;9.77;;;7.07;;
10761;SDS011;5433;50.862;4.320;2023-09-30T01:52:49;10.77;;;7.28;;
10761;SDS011;5433;50.862;4.320;2023-09-30T01:55:15;12.23;;;7.82;;
10761;SDS011;5433;50.862;4.320;2023-09-30T01:57:41;11.52;;;7.30;;
10761;SDS011;5433;50.862;4.320;2023-09-30T02:00:07;11.43;;;7.40;;
10761;SDS011;5433;50.862;4.320;2023-09-30T02:02:37;14.05;;;8.23;;
10761;SDS011;5433;50.862;4.320;2023-09-30T02:05:03;15.18;;;8.32;;
10761;SDS011;5433;50.862;4.320;2023-09-30T02:07:30;10.70;;;8.27;;
10761;SDS011;5433;50.862;4.320;2023-09-30T02:09:56;11.32;;;7.93;;
10761;SDS011;5433;50.862;4.320;2023-09-30T02:12:27;13.00;;;7.88;;
10761;SDS011;5433;50.862;4.320;2023-09-30T02:14:53;12.30;;;8.32;;
10761;SDS011;5433;50.862;4.320;2023-09-30T02:17:19;13.23;;;8.27;;
10761;SDS011;5433;50.862;4.320;2023-09-30T02:19:45;15.40;;;8.77;;
10761;SDS011;5433;50.862;4.320;2023-09-30T02:22:12;11.25;;;8.10;;
10761;SDS011;5433;50.862;4.320;2023-09-30T02:24:38;12.95;;;8.55;;
10761;SDS011;5433;50.862;4.320;2023-09-30T02:27:05;11.07;;;8.20;;
10761;SDS011;5433;50.862;4.320;2023-09-30T02:29:31;10.23;;;8.15;;
10761;SDS011;5433;50.862;4.320;2023-09-30T02:31:58;12.85;;;8.13;;
10761;SDS011;5433;50.862;4.320;2023-09-30T02:34:24;12.38;;;8.63;;
10761;SDS011;5433;50.862;4.320;2023-09-30T02:36:50;13.52;;;8.20;;
10761;SDS011;5433;50.862;4.320;2023-09-30T02:39:16;12.35;;;8.05;;
10761;SDS011;5433;50.862;4.320;2023-09-30T02:41:43;10.60;;;7.65;;
10761;SDS011;5433;50.862;4.320;2023-09-30T02:44:09;14.70;;;9.15;;
10761;SDS011;5433;50.862;4.320;2023-09-30T02:46:35;12.20;;;8.73;;
10761;SDS011;5433;50.862;4.320;2023-09-30T02:49:02;12.23;;;8.25;;
10761;SDS011;5433;50.862;4.320;2023-09-30T02:51:28;12.88;;;8.32;;
10761;SDS011;5433;50.862;4.320;2023-09-30T02:53:55;12.98;;;8.48;;
10761;SDS011;5433;50.862;4.320;2023-09-30T02:56:21;14.90;;;8.95;;
10761;SDS011;5433;50.862;4.320;2023-09-30T02:58:49;13.00;;;8.68;;
10761;SDS011;5433;50.862;4.320;2023-09-30T03:01:19;15.68;;;8.90;;
10761;SDS011;5433;50.862;4.320;2023-09-30T03:03:45;15.25;;;8.90;;
10761;SDS011;5433;50.862;4.320;2023-09-30T03:06:12;14.82;;;8.98;;
10761;SDS011;5433;50.862;4.320;2023-09-30T03:08:39;16.25;;;9.07;;
10761;SDS011;5433;50.862;4.320;2023-09-30T03:11:06;16.42;;;8.85;;
10761;SDS011;5433;50.862;4.320;2023-09-30T03:13:32;12.95;;;8.93;;
10761;SDS011;5433;50.862;4.320;2023-09-30T03:15:58;14.80;;;8.77;;
10761;SDS011;5433;50.862;4.320;2023-09-30T03:18:26;13.55;;;8.88;;
10761;SDS011;5433;50.862;4.320;2023-09-30T03:20:57;16.73;;;9.73;;
10761;SDS011;5433;50.862;4.320;2023-09-30T03:23:25;16.00;;;9.05;;
10761;SDS011;5433;50.862;4.320;2023-09-30T03:25:56;19.08;;;8.90;;
10761;SDS011;5433;50.862;4.320;2023-09-30T03:28:22;12.05;;;8.70;;
10761;SDS011;5433;50.862;4.320;2023-09-30T03:30:48;13.57;;;8.77;;
10761;SDS011;5433;50.862;4.320;2023-09-30T03:33:14;12.98;;;8.35;;
10761;SDS011;5433;50.862;4.320;2023-09-30T03:35:40;14.68;;;9.05;;
10761;SDS011;5433;50.862;4.320;2023-09-30T03:38:06;15.43;;;9.20;;
10761;SDS011;5433;50.862;4.320;2023-09-30T03:40:35;15.73;;;9.52;;
10761;SDS011;5433;50.862;4.320;2023-09-30T03:43:03;18.75;;;9.82;;
10761;SDS011;5433;50.862;4.320;2023-09-30T03:45:32;14.82;;;9.20;;
10761;SDS011;5433;50.862;4.320;2023-09-30T03:47:59;14.57;;;9.35;;
10761;SDS011;5433;50.862;4.320;2023-09-30T03:50:26;18.25;;;9.27;;
10761;SDS011;5433;50.862;4.320;2023-09-30T03:53:00;14.70;;;9.40;;
10761;SDS011;5433;50.862;4.320;2023-09-30T03:55:26;14.90;;;9.30;;
10761;SDS011;5433;50.862;4.320;2023-09-30T03:57:54;15.05;;;9.43;;
10761;SDS011;5433;50.862;4.320;2023-09-30T04:00:21;14.57;;;9.07;;
10761;SDS011;5433;50.862;4.320;2023-09-30T04:02:49;14.85;;;9.00;;
10761;SDS011;5433;50.862;4.320;2023-09-30T04:05:18;12.63;;;9.32;;
10761;SDS011;5433;50.862;4.320;2023-09-30T04:07:44;17.95;;;9.18;;
10761;SDS011;5433;50.862;4.320;2023-09-30T04:10:11;17.77;;;9.70;;
10761;SDS011;5433;50.862;4.320;2023-09-30T04:12:37;17.08;;;9.38;;
10761;SDS011;5433;50.862;4.320;2023-09-30T04:15:03;15.65;;;8.98;;
10761;SDS011;5433;50.862;4.320;2023-09-30T04:17:30;16.42;;;9.45;;
10761;SDS011;5433;50.862;4.320;2023-09-30T04:19:56;16.10;;;9.73;;
10761;SDS011;5433;50.862;4.320;2023-09-30T04:22:22;15.07;;;9.57;;
10761;SDS011;5433;50.862;4.320;2023-09-30T04:24:50;17.65;;;9.68;;
10761;SDS011;5433;50.862;4.320;2023-09-30T04:27:16;15.15;;;9.80;;
10761;SDS011;5433;50.862;4.320;2023-09-30T04:29:42;17.70;;;9.70;;
10761;SDS011;5433;50.862;4.320;2023-09-30T04:32:08;17.80;;;9.38;;
10761;SDS011;5433;50.862;4.320;2023-09-30T04:34:35;15.82;;;9.70;;
10761;SDS011;5433;50.862;4.320;2023-09-30T04:37:01;14.07;;;10.05;;
10761;SDS011;5433;50.862;4.320;2023-09-30T04:39:27;15.85;;;8.95;;
10761;SDS011;5433;50.862;4.320;2023-09-30T04:41:53;18.00;;;10.57;;
10761;SDS011;5433;50.862;4.320;2023-09-30T04:44:20;16.80;;;9.98;;
10761;SDS011;5433;50.862;4.320;2023-09-30T04:46:47;19.60;;;9.68;;
10761;SDS011;5433;50.862;4.320;2023-09-30T04:49:14;17.33;;;9.23;;
10761;SDS011;5433;50.862;4.320;2023-09-30T04:51:40;12.32;;;9.00;;
10761;SDS011;5433;50.862;4.320;2023-09-30T04:54:07;15.80;;;8.98;;
10761;SDS011;5433;50.862;4.320;2023-09-30T04:56:34;18.60;;;9.75;;
10761;SDS011;5433;50.862;4.320;2023-09-30T04:59:00;16.90;;;9.65;;
10761;SDS011;5433;50.862;4.320;2023-09-30T05:01:27;17.27;;;9.02;;
10761;SDS011;5433;50.862;4.320;2023-09-30T05:03:53;17.20;;;9.63;;
10761;SDS011;5433;50.862;4.320;2023-09-30T05:06:19;15.57;;;8.77;;
10761;SDS011;5433;50.862;4.320;2023-09-30T05:08:46;18.42;;;8.48;;
10761;SDS011;5433;50.862;4.320;2023-09-30T05:11:13;17.40;;;8.80;;
10761;SDS011;5433;50.862;4.320;2023-09-30T05:13:39;16.25;;;9.30;;
10761;SDS011;5433;50.862;4.320;2023-09-30T05:16:05;13.77;;;8.80;;
10761;SDS011;5433;50.862;4.320;2023-09-30T05:18:34;15.60;;;8.27;;
10761;SDS011;5433;50.862;4.320;2023-09-30T05:21:00;23.60;;;9.05;;
10761;SDS011;5433;50.862;4.320;2023-09-30T05:23:26;18.25;;;8.77;;
10761;SDS011;5433;50.862;4.320;2023-09-30T05:25:52;17.55;;;8.70;;
10761;SDS011;5433;50.862;4.320;2023-09-30T05:28:20;18.77;;;8.32;;
10761;SDS011;5433;50.862;4.320;2023-09-30T05:30:46;20.73;;;9.20;;
10761;SDS011;5433;50.862;4.320;2023-09-30T05:33:12;16.80;;;8.32;;
10761;SDS011;5433;50.862;4.320;2023-09-30T05:35:40;13.60;;;7.95;;
10761;SDS011;5433;50.862;4.320;2023-09-30T05:38:09;21.75;;;8.68;;
10761;SDS011;5433;50.862;4.320;2023-09-30T05:40:35;20.38;;;8.40;;
10761;SDS011;5433;50.862;4.320;2023-09-30T05:43:01;18.55;;;7.97;;
10761;SDS011;5433;50.862;4.320;2023-09-30T05:45:30;13.73;;;8.55;;
10761;SDS011;5433;50.862;4.320;2023-09-30T05:47:59;17.30;;;8.00;;
10761;SDS011;5433;50.862;4.320;2023-09-30T05:50:28;16.70;;;8.02;;
10761;SDS011;5433;50.862;4.320;2023-09-30T05:52:54;18.85;;;8.15;;
10761;SDS011;5433;50.862;4.320;2023-09-30T05:55:21;16.52;;;8.10;;
10761;SDS011;5433;50.862;4.320;2023-09-30T05:57:47;17.40;;;7.90;;
10761;SDS011;5433;50.862;4.320;2023-09-30T06:00:20;17.25;;;7.55;;
10761;SDS011;5433;50.862;4.320;2023-09-30T06:02:47;15.18;;;7.78;;
10761;SDS011;5433;50.862;4.320;2023-09-30T06:05:14;15.20;;;7.80;;
10761;SDS011;5433;50.862;4.320;2023-09-30T06:07:41;17.85;;;7.40;;
10761;SDS011;5433;50.862;4.320;2023-09-30T06:10:10;16.83;;;7.65;;
10761;SDS011;5433;50.862;4.320;2023-09-30T06:12:36;17.05;;;7.47;;
10761;SDS011;5433;50.862;4.320;2023-09-30T06:15:02;13.70;;;7.65;;
10761;SDS011;5433;50.862;4.320;2023-09-30T06:17:28;17.98;;;7.72;;
10761;SDS011;5433;50.862;4.320;2023-09-30T06:19:54;15.40;;;7.60;;
10761;SDS011;5433;50.862;4.320;2023-09-30T06:22:20;15.48;;;7.45;;
10761;SDS011;5433;50.862;4.320;2023-09-30T06:24:46;17.70;;;7.97;;
10761;SDS011;5433;50.862;4.320;2023-09-30T06:27:13;17.05;;;7.75;;
10761;SDS011;5433;50.862;4.320;2023-09-30T06:29:39;13.75;;;7.20;;
10761;SDS011;5433;50.862;4.320;2023-09-30T06:32:07;13.90;;;7.15;;
10761;SDS011;5433;50.862;4.320;2023-09-30T06:34:33;13.48;;;7.03;;
10761;SDS011;5433;50.862;4.320;2023-09-30T06:36:59;16.13;;;7.80;;
10761;SDS011;5433;50.862;4.320;2023-09-30T06:39:25;15.48;;;7.25;;
10761;SDS011;5433;50.862;4.320;2023-09-30T06:41:52;15.48;;;6.93;;
10761;SDS011;5433;50.862;4.320;2023-09-30T06:44:18;11.90;;;6.32;;
10761;SDS011;5433;50.862;4.320;2023-09-30T06:46:44;18.83;;;6.80;;
10761;SDS011;5433;50.862;4.320;2023-09-30T06:49:10;18.98;;;7.20;;
10761;SDS011;5433;50.862;4.320;2023-09-30T06:51:36;16.17;;;6.75;;
10761;SDS011;5433;50.862;4.320;2023-09-30T06:54:04;15.82;;;6.55;;
10761;SDS011;5433;50.862;4.320;2023-09-30T06:56:31;16.00;;;6.75;;
10761;SDS011;5433;50.862;4.320;2023-09-30T06:58:57;15.98;;;6.68;;
10761;SDS011;5433;50.862;4.320;2023-09-30T07:01:24;13.30;;;6.20;;
10761;SDS011;5433;50.862;4.320;2023-09-30T07:03:50;14.85;;;6.13;;
10761;SDS011;5433;50.862;4.320;2023-09-30T07:06:23;13.75;;;6.18;;
10761;SDS011;5433;50.862;4.320;2023-09-30T07:08:49;17.35;;;6.93;;
10761;SDS011;5433;50.862;4.320;2023-09-30T07:11:15;20.48;;;6.32;;
10761;SDS011;5433;50.862;4.320;2023-09-30T07:13:41;11.98;;;5.25;;
10761;SDS011;5433;50.862;4.320;2023-09-30T07:16:07;12.48;;;6.13;;
10761;SDS011;5433;50.862;4.320;2023-09-30T07:18:33;14.85;;;6.15;;
10761;SDS011;5433;50.862;4.320;2023-09-30T07:20:59;13.95;;;5.50;;
10761;SDS011;5433;50.862;4.320;2023-09-30T07:23:29;12.45;;;5.65;;
10761;SDS011;5433;50.862;4.320;2023-09-30T07:25:56;12.73;;;5.40;;
10761;SDS011;5433;50.862;4.320;2023-09-30T07:28:22;16.20;;;5.70;;
10761;SDS011;5433;50.862;4.320;2023-09-30T07:30:48;15.43;;;5.60;;
10761;SDS011;5433;50.862;4.320;2023-09-30T07:33:14;11.75;;;5.35;;
10761;SDS011;5433;50.862;4.320;2023-09-30T07:35:41;12.18;;;5.22;;
10761;SDS011;5433;50.862;4.320;2023-09-30T07:38:07;13.68;;;5.22;;
10761;SDS011;5433;50.862;4.320;2023-09-30T07:40:33;13.70;;;5.20;;
10761;SDS011;5433;50.862;4.320;2023-09-30T07:42:59;19.05;;;5.95;;
10761;SDS011;5433;50.862;4.320;2023-09-30T07:45:25;16.52;;;6.03;;
10761;SDS011;5433;50.862;4.320;2023-09-30T07:47:53;14.50;;;5.03;;
10761;SDS011;5433;50.862;4.320;2023-09-30T07:50:19;14.30;;;5.75;;
10761;SDS011;5433;50.862;4.320;2023-09-30T07:52:45;16.02;;;5.72;;
10761;SDS011;5433;50.862;4.320;2023-09-30T07:55:11;11.18;;;5.07;;
10761;SDS011;5433;50.862;4.320;2023-09-30T07:57:39;12.95;;;5.20;;
10761;SDS011;5433;50.862;4.320;2023-09-30T08:00:06;19.33;;;5.78;;
10761;SDS011;5433;50.862;4.320;2023-09-30T08:02:34;14.40;;;5.25;;
10761;SDS011;5433;50.862;4.320;2023-09-30T08:05:01;15.13;;;5.05;;
10761;SDS011;5433;50.862;4.320;2023-09-30T08:07:30;16.80;;;6.00;;
10761;SDS011;5433;50.862;4.320;2023-09-30T08:09:56;15.48;;;5.47;;
10761;SDS011;5433;50.862;4.320;2023-09-30T08:12:22;17.77;;;5.80;;
10761;SDS011;5433;50.862;4.320;2023-09-30T08:14:48;14.85;;;4.95;;
10761;SDS011;5433;50.862;4.320;2023-09-30T08:17:16;15.05;;;4.95;;
10761;SDS011;5433;50.862;4.320;2023-09-30T08:19:43;15.52;;;5.30;;
10761;SDS011;5433;50.862;4.320;2023-09-30T08:22:09;17.48;;;5.50;;
10761;SDS011;5433;50.862;4.320;2023-09-30T08:24:35;15.65;;;5.93;;
10761;SDS011;5433;50.862;4.320;2023-09-30T08:27:01;15.75;;;5.38;;
10761;SDS011;5433;50.862;4.320;2023-09-30T08:29:27;15.63;;;6.45;;
10761;SDS011;5433;50.862;4.320;2023-09-30T08:31:53;19.23;;;5.90;;
10761;SDS011;5433;50.862;4.320;2023-09-30T08:34:19;17.73;;;5.70;;
10761;SDS011;5433;50.862;4.320;2023-09-30T08:36:46;13.85;;;5.50;;
10761;SDS011;5433;50.862;4.320;2023-09-30T08:39:13;15.18;;;5.63;;
10761;SDS011;5433;50.862;4.320;2023-09-30T08:41:39;13.82;;;5.68;;
10761;SDS011;5433;50.862;4.320;2023-09-30T08:44:05;19.70;;;5.28;;
10761;SDS011;5433;50.862;4.320;2023-09-30T08:46:31;14.80;;;5.10;;
10761;SDS011;5433;50.862;4.320;2023-09-30T08:48:59;15.10;;;5.47;;
10761;SDS011;5433;50.862;4.320;2023-09-30T08:51:26;18.10;;;6.40;;
10761;SDS011;5433;50.862;4.320;2023-09-30T08:53:53;13.00;;;5.32;;
10761;SDS011;5433;50.862;4.320;2023-09-30T08:56:22;16.67;;;5.80;;
10761;SDS011;5433;50.862;4.320;2023-09-30T08:58:49;18.60;;;7.57;;
10761;SDS011;5433;50.862;4.320;2023-09-30T09:01:16;16.10;;;5.82;;
10761;SDS011;5433;50.862;4.320;2023-09-30T09:03:43;13.95;;;7.55;;
10761;SDS011;5433;50.862;4.320;2023-09-30T09:06:09;19.50;;;11.82;;
10761;SDS011;5433;50.862;4.320;2023-09-30T09:08:35;14.63;;;5.28;;
10761;SDS011;5433;50.862;4.320;2023-09-30T09:13:44;14.50;;;5.60;;
10761;SDS011;5433;50.862;4.320;2023-09-30T09:16:11;19.08;;;5.70;;
10761;SDS011;5433;50.862;4.320;2023-09-30T09:18:37;13.73;;;5.20;;
10761;SDS011;5433;50.862;4.320;2023-09-30T09:23:45;14.73;;;4.78;;
10761;SDS011;5433;50.862;4.320;2023-09-30T09:26:12;11.38;;;4.85;;
10761;SDS011;5433;50.862;4.320;2023-09-30T09:28:39;15.40;;;4.47;;
10761;SDS011;5433;50.862;4.320;2023-09-30T09:31:21;16.42;;;4.43;;
10761;SDS011;5433;50.862;4.320;2023-09-30T09:33:47;17.10;;;4.70;;
10761;SDS011;5433;50.862;4.320;2023-09-30T09:36:14;12.82;;;4.70;;
10761;SDS011;5433;50.862;4.320;2023-09-30T09:38:44;13.27;;;4.93;;
10761;SDS011;5433;50.862;4.320;2023-09-30T09:41:10;15.55;;;4.63;;
10761;SDS011;5433;50.862;4.320;2023-09-30T09:43:40;15.00;;;4.50;;
10761;SDS011;5433;50.862;4.320;2023-09-30T09:46:08;9.98;;;4.07;;
10761;SDS011;5433;50.862;4.320;2023-09-30T09:48:37;10.43;;;4.68;;
10761;SDS011;5433;50.862;4.320;2023-09-30T09:51:03;10.30;;;4.78;;
10761;SDS011;5433;50.862;4.320;2023-09-30T09:53:35;13.82;;;4.57;;
10761;SDS011;5433;50.862;4.320;2023-09-30T09:56:05;13.35;;;4.55;;
10761;SDS011;5433;50.862;4.320;2023-09-30T09:58:35;10.38;;;4.60;;
10761;SDS011;5433;50.862;4.320;2023-09-30T10:01:03;10.13;;;3.83;;
10761;SDS011;5433;50.862;4.320;2023-09-30T10:03:31;9.73;;;4.18;;
10761;SDS011;5433;50.862;4.320;2023-09-30T10:05:58;10.50;;;3.78;;
10761;SDS011;5433;50.862;4.320;2023-09-30T10:08:29;7.65;;;3.97;;
10761;SDS011;5433;50.862;4.320;2023-09-30T10:10:56;11.25;;;3.90;;
10761;SDS011;5433;50.862;4.320;2023-09-30T10:16:26;11.20;;;4.00;;
10761;SDS011;5433;50.862;4.320;2023-09-30T10:21:36;9.32;;;3.78;;
10761;SDS011;5433;50.862;4.320;2023-09-30T10:26:46;10.43;;;3.97;;
10761;SDS011;5433;50.862;4.320;2023-09-30T10:29:13;11.38;;;4.15;;
10761;SDS011;5433;50.862;4.320;2023-09-30T10:31:51;10.68;;;3.47;;
10761;SDS011;5433;50.862;4.320;2023-09-30T10:34:21;10.10;;;3.45;;
10761;SDS011;5433;50.862;4.320;2023-09-30T10:36:47;10.88;;;3.30;;
10761;SDS011;5433;50.862;4.320;2023-09-30T10:39:17;9.02;;;3.45;;
10761;SDS011;5433;50.862;4.320;2023-09-30T10:42:02;8.48;;;3.10;;
10761;SDS011;5433;50.862;4.320;2023-09-30T10:46:58;10.65;;;3.10;;
10761;SDS011;5433;50.862;4.320;2023-09-30T10:51:54;8.45;;;3.00;;
10761;SDS011;5433;50.862;4.320;2023-09-30T10:54:30;6.85;;;2.92;;
10761;SDS011;5433;50.862;4.320;2023-09-30T10:56:56;7.93;;;3.10;;
10761;SDS011;5433;50.862;4.320;2023-09-30T10:59:31;11.40;;;2.90;;
10761;SDS011;5433;50.862;4.320;2023-09-30T11:01:57;9.52;;;3.05;;
10761;SDS011;5433;50.862;4.320;2023-09-30T11:04:23;7.85;;;2.90;;
10761;SDS011;5433;50.862;4.320;2023-09-30T11:06:52;9.45;;;2.88;;
10761;SDS011;5433;50.862;4.320;2023-09-30T11:12:21;6.38;;;2.85;;
10761;SDS011;5433;50.862;4.320;2023-09-30T11:14:58;8.20;;;3.40;;
10761;SDS011;5433;50.862;4.320;2023-09-30T11:17:24;9.93;;;3.08;;
10761;SDS011;5433;50.862;4.320;2023-09-30T11:19:50;9.07;;;3.22;;
10761;SDS011;5433;50.862;4.320;2023-09-30T11:22:17;9.88;;;2.72;;
10761;SDS011;5433;50.862;4.320;2023-09-30T11:24:43;8.98;;;3.05;;
10761;SDS011;5433;50.862;4.320;2023-09-30T11:27:11;5.82;;;3.05;;
10761;SDS011;5433;50.862;4.320;2023-09-30T11:29:37;6.22;;;3.00;;
10761;SDS011;5433;50.862;4.320;2023-09-30T11:32:03;7.72;;;2.85;;
10761;SDS011;5433;50.862;4.320;2023-09-30T11:34:36;6.80;;;2.70;;
10761;SDS011;5433;50.862;4.320;2023-09-30T11:37:06;8.32;;;3.00;;
10761;SDS011;5433;50.862;4.320;2023-09-30T11:39:32;7.10;;;3.05;;
10761;SDS011;5433;50.862;4.320;2023-09-30T11:41:58;7.68;;;2.70;;
10761;SDS011;5433;50.862;4.320;2023-09-30T11:44:26;8.13;;;2.83;;
10761;SDS011;5433;50.862;4.320;2023-09-30T11:46:57;7.32;;;2.70;;
10761;SDS011;5433;50.862;4.320;2023-09-30T11:52:11;6.97;;;2.60;;
10761;SDS011;5433;50.862;4.320;2023-09-30T11:54:39;10.32;;;2.95;;
10761;SDS011;5433;50.862;4.320;2023-09-30T11:57:09;7.07;;;2.20;;
10761;SDS011;5433;50.862;4.320;2023-09-30T11:59:36;5.57;;;2.47;;
10761;SDS011;5433;50.862;4.320;2023-09-30T12:02:03;5.40;;;2.45;;
10761;SDS011;5433;50.862;4.320;2023-09-30T12:04:30;7.35;;;2.53;;
10761;SDS011;5433;50.862;4.320;2023-09-30T12:06:57;8.23;;;2.90;;
10761;SDS011;5433;50.862;4.320;2023-09-30T12:09:23;8.75;;;2.70;;
10761;SDS011;5433;50.862;4.320;2023-09-30T12:11:52;6.72;;;2.38;;
10761;SDS011;5433;50.862;4.320;2023-09-30T12:14:19;5.93;;;2.40;;
10761;SDS011;5433;50.862;4.320;2023-09-30T12:16:45;7.55;;;2.92;;
10761;SDS011;5433;50.862;4.320;2023-09-30T12:19:15;6.43;;;2.60;;
10761;SDS011;5433;50.862;4.320;2023-09-30T12:21:43;6.82;;;2.47;;
10761;SDS011;5433;50.862;4.320;2023-09-30T12:24:12;6.97;;;2.53;;
10761;SDS011;5433;50.862;4.320;2023-09-30T12:26:41;7.57;;;2.85;;
10761;SDS011;5433;50.862;4.320;2023-09-30T12:29:07;7.43;;;2.65;;
10761;SDS011;5433;50.862;4.320;2023-09-30T12:31:34;4.70;;;2.10;;
10761;SDS011;5433;50.862;4.320;2023-09-30T12:34:01;6.43;;;2.55;;
10761;SDS011;5433;50.862;4.320;2023-09-30T12:36:27;6.07;;;2.40;;
10761;SDS011;5433;50.862;4.320;2023-09-30T12:38:53;6.68;;;2.45;;
10761;SDS011;5433;50.862;4.320;2023-09-30T12:41:19;6.13;;;2.53;;
10761;SDS011;5433;50.862;4.320;2023-09-30T12:43:46;4.95;;;2.40;;
10761;SDS011;5433;50.862;4.320;2023-09-30T12:46:12;5.90;;;2.38;;
10761;SDS011;5433;50.862;4.320;2023-09-30T12:48:38;4.25;;;2.05;;
10761;SDS011;5433;50.862;4.320;2023-09-30T12:51:05;5.38;;;2.63;;
10761;SDS011;5433;50.862;4.320;2023-09-30T12:53:32;4.97;;;2.47;;
10761;SDS011;5433;50.862;4.320;2023-09-30T12:55:58;5.28;;;2.22;;
10761;SDS011;5433;50.862;4.320;2023-09-30T12:58:25;5.90;;;2.28;;
10761;SDS011;5433;50.862;4.320;2023-09-30T13:00:53;7.18;;;2.20;;
10761;SDS011;5433;50.862;4.320;2023-09-30T13:03:19;4.65;;;2.72;;
10761;SDS011;5433;50.862;4.320;2023-09-30T13:05:45;4.88;;;1.92;;
10761;SDS011;5433;50.862;4.320;2023-09-30T13:08:11;5.55;;;2.40;;
10761;SDS011;5433;50.862;4.320;2023-09-30T13:10:37;5.22;;;2.30;;
10761;SDS011;5433;50.862;4.320;2023-09-30T13:13:03;5.05;;;2.30;;
10761;SDS011;5433;50.862;4.320;2023-09-30T13:15:30;6.80;;;2.20;;
10761;SDS011;5433;50.862;4.320;2023-09-30T13:17:56;6.50;;;2.60;;
10761;SDS011;5433;50.862;4.320;2023-09-30T13:20:24;7.15;;;2.60;;
10761;SDS011;5433;50.862;4.320;2023-09-30T13:22:50;5.68;;;2.70;;
10761;SDS011;5433;50.862;4.320;2023-09-30T13:25:16;4.28;;;2.55;;
10761;SDS011;5433;50.862;4.320;2023-09-30T13:27:42;5.90;;;2.30;;
10761;SDS011;5433;50.862;4.320;2023-09-30T13:30:09;4.60;;;2.03;;
10761;SDS011;5433;50.862;4.320;2023-09-30T13:32:35;6.63;;;2.20;;
10761;SDS011;5433;50.862;4.320;2023-09-30T13:38:04;4.88;;;2.00;;
10761;SDS011;5433;50.862;4.320;2023-09-30T13:40:30;6.72;;;2.42;;
10761;SDS011;5433;50.862;4.320;2023-09-30T13:42:56;5.22;;;2.50;;
10761;SDS011;5433;50.862;4.320;2023-09-30T13:45:23;6.18;;;2.53;;
10761;SDS011;5433;50.862;4.320;2023-09-30T13:47:50;6.63;;;2.38;;
10761;SDS011;5433;50.862;4.320;2023-09-30T13:50:16;4.57;;;2.13;;
10761;SDS011;5433;50.862;4.320;2023-09-30T13:52:42;6.47;;;2.10;;
10761;SDS011;5433;50.862;4.320;2023-09-30T13:55:08;5.25;;;2.22;;
10761;SDS011;5433;50.862;4.320;2023-09-30T13:57:34;7.57;;;2.35;;
10761;SDS011;5433;50.862;4.320;2023-09-30T14:00:01;6.35;;;2.33;;
10761;SDS011;5433;50.862;4.320;2023-09-30T14:02:28;7.53;;;2.50;;
10761;SDS011;5433;50.862;4.320;2023-09-30T14:04:54;5.30;;;2.25;;
10761;SDS011;5433;50.862;4.320;2023-09-30T14:07:23;8.10;;;2.58;;
10761;SDS011;5433;50.862;4.320;2023-09-30T14:09:50;5.38;;;2.20;;
10761;SDS011;5433;50.862;4.320;2023-09-30T14:12:17;3.95;;;1.90;;
10761;SDS011;5433;50.862;4.320;2023-09-30T14:14:43;6.75;;;2.08;;
10761;SDS011;5433;50.862;4.320;2023-09-30T14:17:13;5.32;;;2.22;;
10761;SDS011;5433;50.862;4.320;2023-09-30T14:19:40;4.93;;;2.40;;
10761;SDS011;5433;50.862;4.320;2023-09-30T14:22:06;6.75;;;2.22;;
10761;SDS011;5433;50.862;4.320;2023-09-30T14:24:33;5.45;;;2.30;;
10761;SDS011;5433;50.862;4.320;2023-09-30T14:27:00;6.43;;;2.28;;
10761;SDS011;5433;50.862;4.320;2023-09-30T14:29:26;6.10;;;2.42;;
10761;SDS011;5433;50.862;4.320;2023-09-30T14:31:53;5.18;;;2.65;;
10761;SDS011;5433;50.862;4.320;2023-09-30T14:34:19;7.32;;;2.35;;
10761;SDS011;5433;50.862;4.320;2023-09-30T14:36:45;6.10;;;2.50;;
10761;SDS011;5433;50.862;4.320;2023-09-30T14:39:12;4.70;;;2.08;;
10761;SDS011;5433;50.862;4.320;2023-09-30T14:41:40;6.65;;;2.45;;
10761;SDS011;5433;50.862;4.320;2023-09-30T14:47:10;5.32;;;2.17;;
10761;SDS011;5433;50.862;4.320;2023-09-30T14:49:36;7.13;;;2.90;;
10761;SDS011;5433;50.862;4.320;2023-09-30T14:52:02;8.25;;;2.50;;
10761;SDS011;5433;50.862;4.320;2023-09-30T14:54:32;5.18;;;2.40;;
10761;SDS011;5433;50.862;4.320;2023-09-30T14:56:58;6.32;;;2.10;;
10761;SDS011;5433;50.862;4.320;2023-09-30T14:59:24;7.95;;;2.60;;
10761;SDS011;5433;50.862;4.320;2023-09-30T15:01:50;8.57;;;2.60;;
10761;SDS011;5433;50.862;4.320;2023-09-30T15:04:18;6.40;;;2.53;;
10761;SDS011;5433;50.862;4.320;2023-09-30T15:06:44;4.13;;;2.30;;
10761;SDS011;5433;50.862;4.320;2023-09-30T15:09:11;8.23;;;2.50;;
10761;SDS011;5433;50.862;4.320;2023-09-30T15:11:37;5.35;;;2.28;;
10761;SDS011;5433;50.862;4.320;2023-09-30T15:14:03;9.10;;;2.75;;
10761;SDS011;5433;50.862;4.320;2023-09-30T15:16:33;7.20;;;2.45;;
10761;SDS011;5433;50.862;4.320;2023-09-30T15:19:00;6.60;;;2.30;;
10761;SDS011;5433;50.862;4.320;2023-09-30T15:21:26;6.65;;;2.40;;